1885 NOT_NAMED (1885355S10428)


IBTrACS version v04r00. Visit IBTrACS website for data access.
Please direct all questions to the IBTrACS Q and A forum

Storm track - Intensity - Wind Radii - Intensity Data - Source Data - All data

Summary Information

Storm ID 1885355S10428
Start Dec 20 18Z
End Dec 28 06Z
ATCF IDs
Track status Best track data.

Storm track plot

Map of storm track

Intensity plots

No Intensity information for this storm


Radial wind information

No radial wind information for this storm


Position and Intensity Table

BASIN ISO_TIME_________ NATURE LAT LON
degrees north degrees east
SI 1885-12-20 18:00:00 NR -10.00 68.00
SI 21:00:00 NR -10.47 66.66
SI 1885-12-21 00:00:00 NR -10.92 65.40
SI 03:00:00 NR -11.30 64.28
SI 06:00:00 NR -11.60 63.40
SI 09:00:00 NR -11.80 62.80
SI 12:00:00 NR -11.93 62.41
SI 15:00:00 NR -12.02 62.14
SI 18:00:00 NR -12.10 61.90
SI 21:00:00 NR -12.21 61.55
SI 1885-12-22 00:00:00 NR -12.33 61.20
SI 03:00:00 NR -12.45 60.85
SI 06:00:00 NR -12.60 60.50
SI 09:00:00 NR -12.78 60.13
SI 12:00:00 NR -12.98 59.75
SI 15:00:00 NR -13.19 59.37
SI 18:00:00 NR -13.40 59.00
SI 21:00:00 NR -13.58 58.64
SI 1885-12-23 00:00:00 NR -13.76 58.28
SI 03:00:00 NR -13.93 57.94
SI 06:00:00 NR -14.10 57.60
SI 09:00:00 NR -14.27 57.26
SI 12:00:00 NR -14.43 56.92
SI 15:00:00 NR -14.61 56.60
SI 18:00:00 NR -14.80 56.30
SI 21:00:00 NR -14.98 56.06
SI 1885-12-24 00:00:00 NR -15.17 55.83
SI 03:00:00 NR -15.41 55.59
SI 06:00:00 NR -15.70 55.30
SI 09:00:00 NR -16.04 54.90
SI 12:00:00 NR -16.44 54.45
SI 15:00:00 NR -16.89 54.00
SI 18:00:00 NR -17.40 53.60
SI 21:00:00 NR -17.98 53.27
SI 1885-12-25 00:00:00 NR -18.61 53.00
SI 03:00:00 NR -19.23 52.77
SI 06:00:00 NR -19.80 52.60
SI 09:00:00 NR -20.26 52.45
SI 12:00:00 NR -20.66 52.35
SI 15:00:00 NR -21.03 52.30
SI 18:00:00 NR -21.40 52.30
SI 21:00:00 NR -21.77 52.30
SI 1885-12-26 00:00:00 NR -22.15 52.35
SI 03:00:00 NR -22.55 52.45
SI 06:00:00 NR -23.00 52.60
SI 09:00:00 NR -23.54 52.78
SI 12:00:00 NR -24.13 53.00
SI 15:00:00 NR -24.73 53.28
SI 18:00:00 NR -25.30 53.60
SI 21:00:00 NR -25.77 53.89
SI 1885-12-27 00:00:00 NR -26.21 54.23
SI 03:00:00 NR -26.67 54.65
SI 06:00:00 NR -27.20 55.20
SI 09:00:00 NR -27.88 55.89
SI 12:00:00 NR -28.61 56.72
SI 15:00:00 NR -29.34 57.63
SI 18:00:00 NR -30.00 58.60
SI 21:00:00 NR -30.56 59.59
SI 1885-12-28 00:00:00 NR -31.03 60.58
SI 03:00:00 NR -31.43 61.59
SI 06:00:00 NR -31.80 62.60

Source Information

Agency Information
USA
TOKYO
CMA
HKO
NEWDELHI
REUNION
BOM
NADI
WELLINGTON
DS824
TD9636 cons_worldwide_trop_cyclone_18710101-19891231-005:Line=1954
TD9635
NEUMANN
MLC

All available IBTrACS Data

SEASON BASIN SUBBASIN ISO_TIME_________ NATURE LAT LON DIST2LAND LANDFALL IFLAG USA SSHS TD9636 LAT TD9636 LON TD9636 STAGE STORM SPEED STORM DIR
Year degrees north degrees east km km 1 degrees north degrees east kts degrees
1886 SI MM 1885-12-20 18:00:00 NR -10.00 68.00 1580 1452 __________O___ -1 -10.00 68.00 7 28 250
1886 SI MM 21:00:00 NR -10.47 66.66 1443 1325 __________P___ -1 -10.47 66.66 7 27 250
1886 SI MM 1885-12-21 00:00:00 NR -10.92 65.40 1318 1211 __________P___ -1 -10.92 65.40 7 25 251
1886 SI MM 03:00:00 NR -11.30 64.28 1211 1129 __________P___ -1 -11.30 64.28 7 21 251
1886 SI MM 06:00:00 NR -11.60 63.40 1129 1076 __________O___ -1 -11.60 63.40 7 15 251
1886 SI MM 09:00:00 NR -11.80 62.80 1076 1046 __________P___ -1 -11.80 62.80 7 10 251
1886 SI MM 12:00:00 NR -11.93 62.41 1046 1026 __________P___ -1 -11.93 62.41 7 7 251
1886 SI MM 15:00:00 NR -12.02 62.14 1021 1001 __________P___ -1 -12.02 62.14 7 5 251
1886 SI MM 18:00:00 NR -12.10 61.90 1001 977 __________O___ -1 -12.10 61.90 7 6 251
1886 SI MM 21:00:00 NR -12.21 61.55 972 949 __________P___ -1 -12.21 61.55 7 7 252
1886 SI MM 1885-12-22 00:00:00 NR -12.33 61.20 949 926 __________P___ -1 -12.33 61.20 7 7 250
1886 SI MM 03:00:00 NR -12.45 60.85 916 890 __________P___ -1 -12.45 60.85 7 7 248
1886 SI MM 06:00:00 NR -12.60 60.50 890 856 __________O___ -1 -12.60 60.50 7 8 245
1886 SI MM 09:00:00 NR -12.78 60.13 856 825 __________P___ -1 -12.78 60.13 7 8 242
1886 SI MM 12:00:00 NR -12.98 59.75 825 793 __________P___ -1 -12.98 59.75 7 8 241
1886 SI MM 15:00:00 NR -13.19 59.37 793 762 __________P___ -1 -13.19 59.37 7 8 240
1886 SI MM 18:00:00 NR -13.40 59.00 762 735 __________O___ -1 -13.40 59.00 7 8 242
1886 SI MM 21:00:00 NR -13.58 58.64 733 719 __________P___ -1 -13.58 58.64 7 8 243
1886 SI MM 1885-12-23 00:00:00 NR -13.76 58.28 707 694 __________P___ -1 -13.76 58.28 7 8 243
1886 SI MM 03:00:00 NR -13.93 57.94 694 671 __________P___ -1 -13.93 57.94 7 7 243
1886 SI MM 06:00:00 NR -14.10 57.60 671 649 __________O___ -1 -14.10 57.60 7 7 243
1886 SI MM 09:00:00 NR -14.27 57.26 649 639 __________P___ -1 -14.27 57.26 7 7 243
1886 SI MM 12:00:00 NR -14.43 56.92 641 621 __________P___ -1 -14.43 56.92 7 7 242
1886 SI MM 15:00:00 NR -14.61 56.60 622 604 __________P___ -1 -14.61 56.60 7 7 239
1886 SI MM 18:00:00 NR -14.80 56.30 606 589 __________O___ -1 -14.80 56.30 7 6 235
1886 SI MM 21:00:00 NR -14.98 56.06 589 568 __________P___ -1 -14.98 56.06 7 6 231
1886 SI MM 1885-12-24 00:00:00 NR -15.17 55.83 568 546 __________P___ -1 -15.17 55.83 7 6 226
1886 SI MM 03:00:00 NR -15.41 55.59 546 515 __________P___ -1 -15.41 55.59 7 7 224
1886 SI MM 06:00:00 NR -15.70 55.30 515 475 __________O___ -1 -15.70 55.30 7 9 226
1886 SI MM 09:00:00 NR -16.04 54.90 475 442 __________P___ -1 -16.04 54.90 7 11 228
1886 SI MM 12:00:00 NR -16.44 54.45 442 409 __________P___ -1 -16.44 54.45 7 12 225
1886 SI MM 15:00:00 NR -16.89 54.00 409 389 __________P___ -1 -16.89 54.00 7 13 220
1886 SI MM 18:00:00 NR -17.40 53.60 394 384 __________O___ -1 -17.40 53.60 7 13 213
1886 SI MM 21:00:00 NR -17.98 53.27 394 360 __________P___ -1 -17.98 53.27 7 13 205
1886 SI MM 1885-12-25 00:00:00 NR -18.61 53.00 360 328 __________P___ -1 -18.61 53.00 7 13 201
1886 SI MM 03:00:00 NR -19.23 52.77 328 307 __________P___ -1 -19.23 52.77 7 13 197
1886 SI MM 06:00:00 NR -19.80 52.60 307 298 __________O___ -1 -19.80 52.60 7 11 197
1886 SI MM 09:00:00 NR -20.26 52.45 304 296 __________P___ -1 -20.26 52.45 7 9 195
1886 SI MM 12:00:00 NR -20.66 52.35 294 294 __________P___ -1 -20.66 52.35 7 8 190
1886 SI MM 15:00:00 NR -21.03 52.30 301 300 __________P___ -1 -21.03 52.30 7 7 183
1886 SI MM 18:00:00 NR -21.40 52.30 302 302 __________O___ -1 -21.40 52.30 7 7 0
1886 SI MM 21:00:00 NR -21.77 52.30 310 310 __________P___ -1 -21.77 52.30 7 8 175
1886 SI MM 1885-12-26 00:00:00 NR -22.15 52.35 310 310 __________P___ -1 -22.15 52.35 7 8 170
1886 SI MM 03:00:00 NR -22.55 52.45 318 318 __________P___ -1 -22.55 52.45 7 9 165
1886 SI MM 06:00:00 NR -23.00 52.60 336 336 __________O___ -1 -23.00 52.60 7 10 163
1886 SI MM 09:00:00 NR -23.54 52.78 355 355 __________P___ -1 -23.54 52.78 7 12 162
1886 SI MM 12:00:00 NR -24.13 53.00 391 391 __________P___ -1 -24.13 53.00 7 13 159
1886 SI MM 15:00:00 NR -24.73 53.28 431 431 __________P___ -1 -24.73 53.28 7 13 155
1886 SI MM 18:00:00 NR -25.30 53.60 479 479 __________O___ -1 -25.30 53.60 7 12 152
1886 SI MM 21:00:00 NR -25.77 53.89 521 521 __________P___ -1 -25.77 53.89 7 11 148
1886 SI MM 1885-12-27 00:00:00 NR -26.21 54.23 555 555 __________P___ -1 -26.21 54.23 7 11 143
1886 SI MM 03:00:00 NR -26.67 54.65 599 599 __________P___ -1 -26.67 54.65 7 13 139
1886 SI MM 06:00:00 NR -27.20 55.20 649 649 __________O___ -1 -27.20 55.20 7 16 137
1886 SI MM 09:00:00 NR -27.88 55.89 726 726 __________P___ -1 -27.88 55.89 7 19 136
1886 SI MM 12:00:00 NR -28.61 56.72 812 812 __________P___ -1 -28.61 56.72 7 21 134
1886 SI MM 15:00:00 NR -29.34 57.63 905 905 __________P___ -1 -29.34 57.63 7 22 130
1886 SI MM 18:00:00 NR -30.00 58.60 1006 1006 __________O___ -1 -30.00 58.60 7 21 126
1886 SI MM 21:00:00 NR -30.56 59.59 1102 1102 __________P___ -1 -30.56 59.59 7 20 121
1886 SI MM 1885-12-28 00:00:00 NR -31.03 60.58 1182 1182 __________P___ -1 -31.03 60.58 7 19 117
1886 SI MM 03:00:00 NR -31.43 61.59 1265 1265 __________P___ -1 -31.43 61.59 7 19 114
1886 SI MM 06:00:00 NR -31.80 62.60 1352 __________O___ -1 -31.80 62.60 7 19 113